カンクン の空港の天気 - METARとTAF

カンクン国際空港 ( MMUN / CUN ) - メキシコ キンタナ・ロー州カンクン
飛行場実況気象(Metar)
観測時間11/30 11:41 CST (11/30 17:41 UTC)
風向・風速東南東 4m/s
視程10km以上
天気現象
全天の4割程度の雲 雲底高度 460m
気温29℃
湿度66%
気圧1016.1hPa
METARMMUN 301741Z 12008KT 7SM SCT015 29/22 A3000 RMK SLP161 57008 914 8/100 MDT CU
過去の天気等 Google飛行場航空写真 Wunderground天気予報

過去48時間のMETAR

飛行場予報(TAF)
発表時間: 11/30 04:05 CST (11/30 10:05 UTC)
予報対象時間: 30日6時 CST ~ 1日12時 CST
風向・風速東南東 3m/s
視程10km以上
全天の4割程度の雲 雲底高度 460m
30日12時 CST から
風向・風速東南東 5m/s
視程10km以上
全天の8割程度の雲 雲底高度 460m
30日18時 CST から 確率 40% で
視程8050m
天気現象弱い雨
全天の8割程度の積乱雲 雲底高度 460m
1日0時 CST から
風向・風速東南東 3m/s
視程10km以上
全天の4割程度の雲 雲底高度 460m
1日2時 CST ~ 1日6時 CST に一時的に
全天の8割程度の積乱雲 雲底高度 460m
1日11時 CST から
風向・風速北東 5m/s
視程10km以上
全天の8割程度の雲 雲底高度 460m
TAF MMUN 301005Z 3012/0118 12005KT P6SM SCT015 TX30/3019Z TN25/3012Z
FM301800 12010KT P6SM BKN015
PROB40 0100/0104 5SM -RA BKN015CB
FM010600 12005KT P6SM SCT015
TEMPO 0108/0112 BKN015CB
FM011700 04010KT P6SM BKN015